Time;durP1;ratioP1;P1;durP2;ratioP2;P2;SDS_P1;SDS_P2;PMS_P1;PMS_P2;Temp;Humidity;BMP_temperature;BMP_pressure;BME280_temperature;BME280_humidity;BME280_pressure;Samples;Min_cycle;Max_cycle;Signal;HPM_P1;HPM_P2
2022/11/28 02:47:58;;;;;;;48.17;18.80;;;;;;;-1.06;100.00;100504.77;1790744;78;26396;-78
2022/11/28 02:50:30;;;;;;;35.55;16.32;;;;;;;-1.07;100.00;100508.50;1760575;80;21019;-76
2022/11/28 02:53:10;;;;;;;36.48;16.35;;;;;;;-1.05;100.00;100507.24;1761227;79;21150;-76
2022/11/28 02:55:39;;;;;;;30.17;15.23;;;;;;;-0.98;100.00;100509.90;1766971;80;21511;-76
2022/11/28 02:58:06;;;;;;;29.40;15.05;;;;;;;-0.92;100.00;100509.55;1758457;80;20971;-78
2022/11/28 03:00:38;;;;;;;28.80;14.53;;;;;;;-0.89;100.00;100512.64;1757902;80;20976;-78
2022/11/28 03:03:14;;;;;;;;;;;;;;;-0.86;100.00;100512.73;1765218;80;20992;-79
2022/11/28 03:06:06;;;;;;;19.57;11.05;;;;;;;-0.85;100.00;100513.03;1753898;80;21111;-76
2022/11/28 03:08:46;;;;;;;25.60;13.38;;;;;;;-0.82;100.00;100513.42;1696182;81;20971;-76
2022/11/28 03:11:24;;;;;;;25.60;13.78;;;;;;;-0.76;100.00;100519.30;1729059;81;21579;-76
2022/11/28 03:13:56;;;;;;;22.98;13.15;;;;;;;-0.77;100.00;100518.99;1737668;81;21572;-75
2022/11/28 03:16:49;;;;;;;25.57;13.48;;;;;;;-0.75;100.00;100514.73;1739630;81;20883;-75
2022/11/28 03:19:30;;;;;;;26.00;14.05;;;;;;;-0.73;100.00;100509.95;1695700;83;21243;-77
2022/11/28 03:22:31;;;;;;;27.32;14.80;;;;;;;-0.72;100.00;100516.47;1745382;81;20979;-76
2022/11/28 03:25:40;;;;;;;29.95;15.13;;;;;;;-0.72;100.00;100508.38;1712380;81;21008;-76
2022/11/28 03:28:13;;;;;;;25.02;13.58;;;;;;;-0.71;100.00;100510.55;1723365;81;21467;-77
2022/11/28 03:31:01;;;;;;;23.62;13.65;;;;;;;-0.68;100.00;100511.47;1739056;82;20939;-76
2022/11/28 03:33:32;;;;;;;24.15;13.25;;;;;;;-0.66;100.00;100510.73;1704169;83;21225;-76
2022/11/28 03:36:07;;;;;;;29.20;14.80;;;;;;;-0.68;100.00;100516.34;1709416;82;20979;-76
2022/11/28 03:38:37;;;;;;;23.98;13.60;;;;;;;-0.69;100.00;100524.64;1695637;83;20904;-75
2022/11/28 03:41:19;;;;;;;23.62;12.80;;;;;;;-0.67;100.00;100520.69;1704773;83;20920;-75
2022/11/28 03:43:50;;;;;;;27.93;14.55;;;;;;;-0.66;100.00;100522.86;1703719;83;20920;-76
2022/11/28 03:46:18;;;;;;;26.02;14.30;;;;;;;-0.66;100.00;100522.86;1688405;83;21251;-75
2022/11/28 03:48:48;;;;;;;24.20;13.28;;;;;;;-0.63;100.00;100531.04;1675462;85;20971;-76
2022/11/28 03:51:20;;;;;;;23.45;12.95;;;;;;;-0.62;100.00;100531.34;1680905;84;20922;-75
2022/11/28 03:54:06;;;;;;;23.92;12.43;;;;;;;-0.61;100.00;100528.95;1676556;85;21018;-75
2022/11/28 03:56:53;;;;;;;19.73;11.35;;;;;;;-0.63;100.00;100533.21;1678134;85;21426;-75
2022/11/28 03:59:42;;;;;;;20.82;11.83;;;;;;;-0.63;100.00;100533.73;1677938;85;21150;-75
2022/11/28 04:02:29;;;;;;;26.65;13.72;;;;;;;-0.65;100.00;100532.60;1681299;85;20986;-75
2022/11/28 04:05:30;;;;;;;25.30;13.20;;;;;;;-0.67;100.00;100534.17;1677793;84;20868;-75
2022/11/28 04:08:01;;;;;;;23.98;13.00;;;;;;;-0.65;100.00;100539.87;1721219;82;20985;-74
2022/11/28 04:10:53;;;;;;;18.23;11.07;;;;;;;-0.64;100.00;100544.22;1726820;82;21000;-75
2022/11/28 04:13:30;;;;;;;19.30;11.20;;;;;;;-0.67;100.00;100540.91;1725269;82;21270;-75
2022/11/28 04:16:14;;;;;;;23.25;11.57;;;;;;;-0.72;100.00;100539.39;1729288;81;21014;-75
2022/11/28 04:19:01;;;;;;;21.80;12.60;;;;;;;-0.72;100.00;100543.95;1727464;81;20979;-72
2022/11/28 04:21:45;;;;;;;21.97;12.35;;;;;;;-0.74;100.00;100544.17;1722309;81;20963;-73
2022/11/28 04:24:17;;;;;;;24.67;13.58;;;;;;;-0.75;100.00;100543.87;1742899;81;20971;-71
2022/11/28 04:26:50;;;;;;;22.10;11.70;;;;;;;-0.74;100.00;100543.34;1744411;81;21074;-70
2022/11/28 04:29:17;;;;;;;21.55;13.32;;;;;;;-0.72;100.00;100542.09;1741724;81;21534;-70
2022/11/28 04:31:44;;;;;;;25.43;13.55;;;;;;;-0.70;100.00;100536.48;1743857;81;21387;-73
2022/11/28 04:34:14;;;;;;;20.17;11.83;;;;;;;-0.67;100.00;100542.26;1746315;81;20971;-68
2022/11/28 04:36:42;;;;;;;22.60;12.75;;;;;;;-0.64;100.00;100545.56;1741337;81;20983;-67
2022/11/28 04:39:12;;;;;;;22.40;13.35;;;;;;;-0.65;100.00;100549.30;1738705;81;22237;-70
2022/11/28 04:41:42;;;;;;;24.05;12.53;;;;;;;-0.66;100.00;100548.48;1731938;81;20893;-67
2022/11/28 04:44:19;;;;;;;24.85;13.38;;;;;;;-0.68;100.00;100549.22;1739973;81;20987;-67
2022/11/28 04:46:49;;;;;;;24.12;12.73;;;;;;;-0.72;100.00;100540.73;1746924;80;21498;-68
2022/11/28 04:49:17;;;;;;;20.15;11.30;;;;;;;-0.74;100.00;100540.12;1730269;81;21122;-71
2022/11/28 04:52:07;;;;;;;21.17;12.23;;;;;;;-0.73;100.00;100543.13;1723692;81;21119;-73
2022/11/28 04:54:48;;;;;;;20.00;11.48;;;;;;;-0.73;100.00;100547.17;1746207;81;20979;-68
2022/11/28 04:57:20;;;;;;;20.05;12.53;;;;;;;-0.72;100.00;100546.66;1744099;81;21525;-68
2022/11/28 04:59:47;;;;;;;20.75;13.30;;;;;;;-0.69;100.00;100550.27;1730986;81;21118;-68
2022/11/28 05:02:14;;;;;;;20.60;12.75;;;;;;;-0.68;100.00;100551.91;1735191;81;20972;-68
2022/11/28 05:04:41;;;;;;;20.35;11.70;;;;;;;-0.70;100.00;100550.78;1733506;81;21547;-67
2022/11/28 10:46:58;;;;;;;16.23;9.70;;;;;;;0.35;100.00;100585.16;1798514;78;26357;-77
2022/11/28 10:49:53;;;;;;;20.50;10.98;;;;;;;0.30;100.00;100588.00;1733958;80;20962;-77
2022/11/28 10:52:42;;;;;;;21.37;11.48;;;;;;;0.31;100.00;100585.60;1738597;81;21152;-77
2022/11/28 10:55:48;;;;;;;59.08;31.85;;;;;;;0.33;100.00;100586.73;1729654;81;20907;-76
2022/11/28 10:58:35;;;;;;;25.65;14.30;;;;;;;0.32;100.00;100583.20;1737824;81;21507;-74
2022/11/28 11:01:01;;;;;;;32.90;16.82;;;;;;;0.36;100.00;100582.76;1730057;80;20897;-77
2022/11/28 11:03:31;;;;;;;23.38;13.43;;;;;;;0.36;100.00;100591.69;1743776;81;20987;-75
2022/11/28 11:05:59;;;;;;;86.97;35.88;;;;;;;0.38;100.00;100590.94;1746012;81;21810;-77
2022/11/28 11:08:28;;;;;;;75.08;32.95;;;;;;;0.39;100.00;100588.54;1747712;81;21550;-77
2022/11/28 11:11:19;;;;;;;31.42;17.60;;;;;;;0.41;100.00;100576.98;1749070;81;20905;-75
2022/11/28 11:13:59;;;;;;;27.48;16.60;;;;;;;0.43;100.00;100584.87;1749317;80;21565;-73
2022/11/28 11:16:47;;;;;;;23.75;12.60;;;;;;;0.39;100.00;100586.36;1749799;80;21474;-74
2022/11/28 11:19:30;;;;;;;23.10;12.90;;;;;;;0.33;100.00;100584.03;1743217;80;21464;-77
2022/11/28 11:22:04;;;;;;;;;;;;;;;0.35;100.00;100579.75;1723751;81;21094;-76
2022/11/28 11:24:31;;;;;;;73.20;34.40;;;;;;;0.36;100.00;100579.53;1746011;80;20182;-79
2022/11/28 11:27:08;;;;;;;84.87;43.98;;;;;;;0.34;100.00;100574.88;1744939;81;21458;-82
2022/11/28 11:29:36;;;;;;;36.63;19.73;;;;;;;0.34;100.00;100569.48;1726359;81;20935;-82
2022/11/28 11:32:05;;;;;;;35.10;20.97;;;;;;;0.37;100.00;100571.73;1763296;80;21798;-84
2022/11/28 11:34:44;;;;;;;28.77;14.80;;;;;;;0.39;100.00;100575.56;1747599;80;20948;-87
2022/11/28 11:37:33;;;;;;;25.82;14.63;;;;;;;0.39;100.00;100575.56;1747903;80;20980;-90
2022/11/28 11:40:01;;;;;;;25.25;14.60;;;;;;;0.36;100.00;100578.18;1759470;81;20853;-89
2022/11/28 11:42:30;;;;;;;55.50;27.90;;;;;;;0.34;100.00;100573.53;1746536;81;20963;-90
2022/11/28 11:45:01;;;;;;;33.13;16.55;;;;;;;0.36;100.00;100577.36;1744513;80;21225;-87
2022/11/28 11:47:41;;;;;;;28.95;15.93;;;;;;;0.36;100.00;100578.18;1758229;80;20897;-86
2022/11/28 11:50:17;;;;;;;51.00;25.55;;;;;;;0.39;100.00;100575.56;1759226;80;20884;-87
2022/11/28 11:53:05;;;;;;;30.43;15.53;;;;;;;0.45;100.00;100577.36;1763383;80;20924;-85
2022/11/28 11:55:40;;;;;;;24.27;13.28;;;;;;;0.49;100.00;100566.41;1759309;80;21059;-78
2022/11/28 11:58:08;;;;;;;23.95;14.38;;;;;;;0.52;100.00;100567.31;1760146;80;21850;-76
2022/11/28 12:00:38;;;;;;;35.83;20.15;;;;;;;0.50;100.00;100567.53;1752913;80;20921;-78
2022/11/28 12:03:36;;;;;;;26.05;14.80;;;;;;;0.51;100.00;100573.77;1741582;80;20939;-78
2022/11/28 12:06:13;;;;;;;31.45;17.23;;;;;;;0.52;100.00;100576.77;1733561;80;20995;-79
2022/11/28 12:09:21;;;;;;;20.35;12.45;;;;;;;0.47;100.00;100571.21;1749687;80;20975;-80
2022/11/28 12:12:08;;;;;;;21.62;12.88;;;;;;;0.46;100.00;100574.96;1757666;80;21233;-80
2022/11/28 12:14:35;;;;;;;17.30;10.72;;;;;;;0.43;100.00;100574.06;1760208;80;21014;-82
2022/11/28 12:17:47;;;;;;;17.25;10.60;;;;;;;0.46;100.00;100574.96;1743030;80;21443;-81
2022/11/28 12:20:55;;;;;;;17.10;9.65;;;;;;;0.48;100.00;100581.80;1734755;80;22166;-77
2022/11/28 12:24:16;;;;;;;21.05;11.93;;;;;;;0.41;100.00;100579.69;1739169;81;21545;-78
2022/11/28 12:27:18;;;;;;;23.15;11.88;;;;;;;0.37;100.00;100581.19;1738969;80;21572;-78
2022/11/28 12:30:07;;;;;;;99.90;37.05;;;;;;;0.33;100.00;100585.38;1749992;81;20948;-77
